createdAt,value
2016-09-24T00:00:11.898Z,11.38
2016-09-24T00:01:11.862Z,11.35
2016-09-24T00:02:12.169Z,11.39
2016-09-24T00:03:11.850Z,11.34
2016-09-24T00:04:11.835Z,11.34
2016-09-24T00:05:11.819Z,11.28
2016-09-24T00:06:12.119Z,11.32
2016-09-24T00:07:11.791Z,11.32
2016-09-24T00:08:11.781Z,11.27
2016-09-24T00:09:11.763Z,11.29
2016-09-24T00:10:11.751Z,11.28
2016-09-24T00:11:11.740Z,11.28
2016-09-24T00:12:11.724Z,11.32
2016-09-24T00:13:11.714Z,11.34
2016-09-24T00:14:12.025Z,11.31
2016-09-24T00:15:11.689Z,11.25
2016-09-24T00:16:11.684Z,11.31
2016-09-24T00:17:11.660Z,11.25
2016-09-24T00:18:12.168Z,11.24
2016-09-24T00:19:11.949Z,11.19
2016-09-24T00:20:11.645Z,11.24
2016-09-24T00:21:11.611Z,11.2
2016-09-24T00:22:11.601Z,11.24
2016-09-24T00:23:11.903Z,11.19
2016-09-24T00:24:11.575Z,11.19
2016-09-24T00:25:11.561Z,11.19
2016-09-24T00:26:11.859Z,11.25
2016-09-24T00:27:11.847Z,11.2
2016-09-24T00:28:11.519Z,11.17
2016-09-24T00:29:11.823Z,11.11
2016-09-24T00:30:11.813Z,11.24
2016-09-24T00:31:11.486Z,11.19
2016-09-24T00:32:11.470Z,11.25
2016-09-24T00:33:11.459Z,11.21
2016-09-24T00:34:11.444Z,11.25
2016-09-24T00:35:11.430Z,11.2
2016-09-24T00:36:11.422Z,11.24
2016-09-24T00:37:11.403Z,11.24
2016-09-24T00:38:11.396Z,11.24
2016-09-24T00:39:11.383Z,11.25
2016-09-24T00:40:11.388Z,11.21
2016-09-24T00:41:11.554Z,11.21
2016-09-24T00:42:11.343Z,11.21
2016-09-24T00:43:11.340Z,11.06
2016-09-24T00:44:11.317Z,11.2
2016-09-24T00:45:11.304Z,11.24
2016-09-24T00:46:11.291Z,11.19
2016-09-24T00:47:11.283Z,11.2
2016-09-24T00:48:11.265Z,11.09
2016-09-24T00:49:11.306Z,11.21
2016-09-24T00:50:11.241Z,11.19
2016-09-24T00:51:11.228Z,11.14
2016-09-24T00:52:11.212Z,11.17
2016-09-24T00:53:11.201Z,11.11
2016-09-24T00:54:11.190Z,11.1
2016-09-24T00:55:11.173Z,11.1
2016-09-24T00:56:11.162Z,11.07
2016-09-24T00:57:11.158Z,11.14
2016-09-24T00:58:11.138Z,11.14
2016-09-24T00:59:11.123Z,11.03
2016-09-24T01:00:11.111Z,10.99
2016-09-24T01:01:11.100Z,11.16
2016-09-24T01:02:11.085Z,11.03
2016-09-24T01:03:11.074Z,10.99
2016-09-24T01:04:11.053Z,10.98
2016-09-24T01:05:11.048Z,10.96
2016-09-24T01:06:11.040Z,10.99
2016-09-24T01:07:11.019Z,10.96
2016-09-24T01:08:11.321Z,10.99
2016-09-24T01:09:11.310Z,10.99
2016-09-24T01:10:10.983Z,11.06
2016-09-24T01:11:11.168Z,10.96
2016-09-24T01:12:10.967Z,10.96
2016-09-24T01:13:10.942Z,10.99
2016-09-24T01:14:10.933Z,10.99
2016-09-24T01:15:10.911Z,10.88
2016-09-24T01:16:10.908Z,10.88
2016-09-24T01:17:10.891Z,10.98
2016-09-24T01:18:10.880Z,10.92
2016-09-24T01:19:11.181Z,10.98
2016-09-24T01:20:10.855Z,10.95
2016-09-24T01:21:10.843Z,10.98
2016-09-24T01:22:11.235Z,10.98
2016-09-24T01:23:10.824Z,10.95
2016-09-24T01:24:10.798Z,10.95
2016-09-24T01:25:10.790Z,10.95
2016-09-24T01:26:10.775Z,10.94
2016-09-24T01:27:10.766Z,10.98
2016-09-24T01:28:11.059Z,10.91
2016-09-24T01:29:10.736Z,10.99
2016-09-24T01:30:10.724Z,10.91
2016-09-24T01:31:10.707Z,10.95
2016-09-24T01:32:11.011Z,10.94
2016-09-24T01:33:10.681Z,10.92
2016-09-24T01:34:10.988Z,10.94
2016-09-24T01:35:10.707Z,10.99
2016-09-24T01:36:10.644Z,10.98
2016-09-24T01:37:10.947Z,10.91
2016-09-24T01:38:10.621Z,10.95
2016-09-24T01:39:10.605Z,10.96
2016-09-24T01:40:10.589Z,10.96
2016-09-24T01:41:10.582Z,10.95
2016-09-24T01:42:10.561Z,10.96
2016-09-24T01:43:10.550Z,10.96
2016-09-24T01:44:11.170Z,10.84
2016-09-24T01:45:10.531Z,10.86
2016-09-24T01:46:10.519Z,10.91
2016-09-24T01:47:10.501Z,10.88
2016-09-24T01:48:10.494Z,10.84
2016-09-24T01:49:10.471Z,10.91
2016-09-24T01:50:10.462Z,10.81
2016-09-24T01:51:10.447Z,10.88
2016-09-24T01:52:10.438Z,10.78
2016-09-24T01:53:10.424Z,10.88
2016-09-24T01:54:10.408Z,10.81
2016-09-24T01:55:10.406Z,10.96
2016-09-24T01:56:10.387Z,10.84
2016-09-24T01:57:10.381Z,10.86
2016-09-24T01:58:10.665Z,10.86
2016-09-24T01:59:10.668Z,10.78
2016-09-24T02:00:10.331Z,10.89
2016-09-24T02:01:10.318Z,10.88
2016-09-24T02:02:10.303Z,10.84
2016-09-24T02:03:10.348Z,10.84
2016-09-24T02:04:10.280Z,10.92
2016-09-24T02:05:10.260Z,10.92
2016-09-24T02:06:10.256Z,10.88
2016-09-24T02:07:10.236Z,10.86
2016-09-24T02:08:10.228Z,10.92
2016-09-24T02:09:10.528Z,10.88
2016-09-24T02:10:10.215Z,10.96
2016-09-24T02:11:10.186Z,10.86
2016-09-24T02:12:10.174Z,10.95
2016-09-24T02:13:10.159Z,10.88
2016-09-24T02:14:10.150Z,10.95
2016-09-24T02:15:10.468Z,10.86
2016-09-24T02:16:10.435Z,10.84
2016-09-24T02:17:10.110Z,10.86
2016-09-24T02:18:10.095Z,10.84
2016-09-24T02:19:10.400Z,10.94
2016-09-24T02:20:10.074Z,10.88
2016-09-24T02:21:10.084Z,10.86
2016-09-24T02:22:10.057Z,10.96
2016-09-24T02:23:10.346Z,10.88
2016-09-24T02:24:10.020Z,10.78
2016-09-24T02:25:10.013Z,10.83
2016-09-24T02:26:09.991Z,10.8
2016-09-24T02:27:10.285Z,10.95
2016-09-24T02:28:09.967Z,10.99
2016-09-24T02:29:09.946Z,10.83
2016-09-24T02:30:09.940Z,10.84
2016-09-24T02:31:09.928Z,10.81
2016-09-24T02:32:10.225Z,10.84
2016-09-24T02:33:09.894Z,10.81
2016-09-24T02:34:09.887Z,10.88
2016-09-24T02:35:09.872Z,10.81
2016-09-24T02:36:09.858Z,10.96
2016-09-24T02:37:09.845Z,10.8
2016-09-24T02:38:09.831Z,10.91
2016-09-24T02:39:09.818Z,10.8
2016-09-24T02:40:09.808Z,10.78
2016-09-24T02:41:09.997Z,10.83
2016-09-24T02:42:09.779Z,10.89
2016-09-24T02:43:09.762Z,10.78
2016-09-24T02:44:09.751Z,10.8
2016-09-24T02:45:09.733Z,10.92
2016-09-24T02:46:09.726Z,10.86
2016-09-24T02:47:10.026Z,10.89
2016-09-24T02:48:09.709Z,10.84
2016-09-24T02:49:09.688Z,10.78
2016-09-24T02:50:09.673Z,10.81
2016-09-24T02:51:09.975Z,10.78
2016-09-24T02:52:09.961Z,10.8
2016-09-24T02:53:09.950Z,10.81
2016-09-24T02:54:09.626Z,10.78
2016-09-24T02:55:09.610Z,10.77
2016-09-24T02:56:09.912Z,10.84
2016-09-24T02:57:09.582Z,10.77
2016-09-24T02:58:09.570Z,10.8
2016-09-24T02:59:09.551Z,10.76
2016-09-24T03:00:09.547Z,10.8
2016-09-24T03:01:09.530Z,10.8
2016-09-24T03:02:09.533Z,10.71
2016-09-24T03:03:09.503Z,10.73
2016-09-24T03:04:09.493Z,10.8
2016-09-24T03:05:09.478Z,10.71
2016-09-24T03:06:09.463Z,10.8
2016-09-24T03:07:09.452Z,10.74
2016-09-24T03:08:09.443Z,10.8
2016-09-24T03:09:09.759Z,10.71
2016-09-24T03:10:09.722Z,10.77
2016-09-24T03:11:09.448Z,10.76
2016-09-24T03:12:09.391Z,10.73
2016-09-24T03:13:09.374Z,10.73
2016-09-24T03:14:09.359Z,10.76
2016-09-24T03:15:09.346Z,10.78
2016-09-24T03:16:09.341Z,10.74
2016-09-24T03:17:09.320Z,10.73
2016-09-24T03:18:09.305Z,10.66
2016-09-24T03:19:09.289Z,10.78
2016-09-24T03:20:09.599Z,10.78
2016-09-24T03:21:09.266Z,10.7
2016-09-24T03:22:09.253Z,10.7
2016-09-24T03:23:09.236Z,10.71
2016-09-24T03:24:09.232Z,10.76
2016-09-24T03:25:09.212Z,10.74
2016-09-24T03:26:09.513Z,10.71
2016-09-24T03:27:09.184Z,10.62
2016-09-24T03:28:09.176Z,10.73
2016-09-24T03:29:09.535Z,10.77
2016-09-24T03:30:09.147Z,10.7
2016-09-24T03:31:09.452Z,10.76
2016-09-24T03:32:09.119Z,10.73
2016-09-24T03:33:09.108Z,10.73
2016-09-24T03:34:09.099Z,10.73
2016-09-24T03:35:09.091Z,10.66
2016-09-24T03:36:09.390Z,10.76
2016-09-24T03:37:09.062Z,10.71
2016-09-24T03:38:09.668Z,10.71
2016-09-24T03:39:09.340Z,10.68
2016-09-24T03:40:09.023Z,10.63
2016-09-24T03:41:08.999Z,10.68
2016-09-24T03:42:09.313Z,10.71
2016-09-24T03:43:08.980Z,10.71
2016-09-24T03:44:09.276Z,10.74
2016-09-24T03:45:08.946Z,10.66
2016-09-24T03:46:08.950Z,10.63
2016-09-24T03:47:08.926Z,10.66
2016-09-24T03:48:09.218Z,10.66
2016-09-24T03:49:09.206Z,10.74
2016-09-24T03:50:08.881Z,10.65
2016-09-24T03:51:08.868Z,10.74
2016-09-24T03:52:08.857Z,10.65
2016-09-24T03:53:08.851Z,10.74
2016-09-24T03:54:09.347Z,10.71
2016-09-24T03:55:08.817Z,10.7
2016-09-24T03:56:08.805Z,10.74
2016-09-24T03:57:08.786Z,10.77
2016-09-24T03:58:08.778Z,10.7
2016-09-24T03:59:08.758Z,10.66
2016-09-24T04:00:08.751Z,10.73
2016-09-24T04:01:08.736Z,10.7
2016-09-24T04:02:08.734Z,10.73
2016-09-24T04:03:09.029Z,10.71
2016-09-24T04:04:08.697Z,10.71
2016-09-24T04:05:08.682Z,10.73
2016-09-24T04:06:08.664Z,10.77
2016-09-24T04:07:08.680Z,10.73
2016-09-24T04:08:08.642Z,10.65
2016-09-24T04:09:08.630Z,10.66
2016-09-24T04:10:08.615Z,10.76
2016-09-24T04:11:08.925Z,10.76
2016-09-24T04:12:08.593Z,10.77
2016-09-24T04:13:08.577Z,10.65
2016-09-24T04:14:08.563Z,10.66
2016-09-24T04:15:08.547Z,10.66
2016-09-24T04:16:08.533Z,10.55
2016-09-24T04:17:08.522Z,10.55
2016-09-24T04:18:08.510Z,10.63
2016-09-24T04:19:08.806Z,10.58
2016-09-24T04:20:08.789Z,10.55
2016-09-24T04:21:08.485Z,10.6
2016-09-24T04:22:08.455Z,10.56
2016-09-24T04:23:08.441Z,10.52
2016-09-24T04:24:08.434Z,10.55
2016-09-24T04:25:08.418Z,10.58
2016-09-24T04:26:08.406Z,10.55
2016-09-24T04:27:08.443Z,10.53
2016-09-24T04:28:08.377Z,10.58
2016-09-24T04:29:08.361Z,10.51
2016-09-24T04:30:08.660Z,10.56
2016-09-24T04:31:08.336Z,10.52
2016-09-24T04:32:08.641Z,10.52
2016-09-24T04:33:08.311Z,10.52
2016-09-24T04:34:08.303Z,10.58
2016-09-24T04:35:08.595Z,10.58
2016-09-24T04:36:08.274Z,10.51
2016-09-24T04:37:08.252Z,10.51
2016-09-24T04:38:08.246Z,10.53
2016-09-24T04:39:08.226Z,10.52
2016-09-24T04:40:08.216Z,10.47
2016-09-24T04:41:08.201Z,10.53
2016-09-24T04:42:08.387Z,10.53
2016-09-24T04:43:08.180Z,10.52
2016-09-24T04:44:08.160Z,10.51
2016-09-24T04:45:08.152Z,10.53
2016-09-24T04:46:08.134Z,10.44
2016-09-24T04:47:08.123Z,10.53
2016-09-24T04:48:08.107Z,10.52
2016-09-24T04:49:08.090Z,10.52
2016-09-24T04:50:08.080Z,10.47
2016-09-24T04:51:08.070Z,10.43
2016-09-24T04:52:08.056Z,10.44
2016-09-24T04:53:08.036Z,10.37
2016-09-24T04:54:08.025Z,10.44
2016-09-24T04:55:08.344Z,10.51
2016-09-24T04:56:07.993Z,10.52
2016-09-24T04:57:07.989Z,10.43
2016-09-24T04:58:08.286Z,10.42
2016-09-24T04:59:07.957Z,10.43
2016-09-24T05:00:08.256Z,10.47
2016-09-24T05:01:07.930Z,10.51
2016-09-24T05:02:07.920Z,10.53
2016-09-24T05:03:07.911Z,10.47
2016-09-24T05:04:08.204Z,10.44
2016-09-24T05:05:07.877Z,10.53
2016-09-24T05:06:07.873Z,10.46
2016-09-24T05:07:07.881Z,10.56
2016-09-24T05:08:08.155Z,10.46
2016-09-24T05:09:07.823Z,10.55
2016-09-24T05:10:08.121Z,10.47
2016-09-24T05:11:07.793Z,10.58
2016-09-24T05:12:07.782Z,10.56
2016-09-24T05:13:07.768Z,10.51
2016-09-24T05:14:07.754Z,10.53
2016-09-24T05:15:07.740Z,10.58
2016-09-24T05:16:07.729Z,10.63
2016-09-24T05:17:07.715Z,10.55
2016-09-24T05:18:07.699Z,10.56
2016-09-24T05:19:07.704Z,10.59
2016-09-24T05:20:07.676Z,10.56
2016-09-24T05:21:07.666Z,10.73
2016-09-24T05:22:07.654Z,10.66
2016-09-24T05:23:07.641Z,10.74
2016-09-24T05:24:07.621Z,10.73
2016-09-24T05:25:07.929Z,10.78
2016-09-24T05:26:07.904Z,10.68
2016-09-24T05:27:07.580Z,10.74
2016-09-24T05:28:07.570Z,10.74
2016-09-24T05:29:07.873Z,10.76
2016-09-24T05:30:07.542Z,10.7
2016-09-24T05:31:07.535Z,10.8
2016-09-24T05:32:07.531Z,10.83
2016-09-24T05:33:07.507Z,10.78
2016-09-24T05:34:07.484Z,10.81
2016-09-24T05:35:07.474Z,10.88
2016-09-24T05:36:07.787Z,10.94
2016-09-24T05:37:07.446Z,10.89
2016-09-24T05:38:07.429Z,10.92
2016-09-24T05:39:07.418Z,10.94
2016-09-24T05:40:07.407Z,11.02
2016-09-24T05:41:07.391Z,11.07
2016-09-24T05:42:07.385Z,11.14
2016-09-24T05:43:07.441Z,11.09
2016-09-24T05:44:07.355Z,11.09
2016-09-24T05:45:07.344Z,11.13
2016-09-24T05:46:07.325Z,11.2
2016-09-24T05:47:07.318Z,11.25
2016-09-24T05:48:07.311Z,11.31
2016-09-24T05:49:07.285Z,11.28
2016-09-24T05:50:07.276Z,11.31
2016-09-24T05:51:07.259Z,11.29
2016-09-24T05:52:07.579Z,11.31
2016-09-24T05:53:07.237Z,11.35
2016-09-24T05:54:07.227Z,11.38
2016-09-24T05:55:07.221Z,11.34
2016-09-24T05:56:07.199Z,11.36
2016-09-24T05:57:07.190Z,11.46
2016-09-24T05:58:07.173Z,11.5
2016-09-24T05:59:07.163Z,11.41
2016-09-24T06:00:07.148Z,11.41
2016-09-24T06:01:07.136Z,11.46
2016-09-24T06:02:07.135Z,11.44
2016-09-24T06:03:07.110Z,11.44
2016-09-24T06:04:07.099Z,11.39
2016-09-24T06:05:07.078Z,11.43
2016-09-24T06:06:07.075Z,11.44
2016-09-24T06:07:07.375Z,11.44
2016-09-24T06:08:07.050Z,11.53
2016-09-24T06:09:07.035Z,11.56
2016-09-24T06:10:07.016Z,11.53
2016-09-24T06:11:07.321Z,11.49
2016-09-24T06:12:06.998Z,11.52
2016-09-24T06:13:06.981Z,11.56
2016-09-24T06:14:06.971Z,11.53
2016-09-24T06:15:06.962Z,11.62
2016-09-24T06:16:07.258Z,11.61
2016-09-24T06:17:06.933Z,11.67
2016-09-24T06:18:06.920Z,11.68
2016-09-24T06:19:07.215Z,11.7
2016-09-24T06:20:07.204Z,11.68
2016-09-24T06:21:07.196Z,11.78
2016-09-24T06:22:06.872Z,11.78
2016-09-24T06:23:06.856Z,11.85
2016-09-24T06:24:06.845Z,11.83
2016-09-24T06:25:06.828Z,11.85
2016-09-24T06:26:06.816Z,11.86
2016-09-24T06:27:06.805Z,11.96
2016-09-24T06:28:06.795Z,11.85
2016-09-24T06:29:06.788Z,11.99
2016-09-24T06:30:07.089Z,11.94
2016-09-24T06:31:06.754Z,11.97
2016-09-24T06:32:06.738Z,11.99
2016-09-24T06:33:06.742Z,12.11
2016-09-24T06:34:07.037Z,12.11
2016-09-24T06:35:07.351Z,12.21
2016-09-24T06:36:07.008Z,12.15
2016-09-24T06:37:06.680Z,12.21
2016-09-24T06:38:06.680Z,12.2
2016-09-24T06:39:06.972Z,12.21
2016-09-24T06:40:06.642Z,12.31
2016-09-24T06:41:06.629Z,12.37
2016-09-24T06:42:07.131Z,12.46
2016-09-24T06:43:06.923Z,12.49
2016-09-24T06:44:06.596Z,12.51
2016-09-24T06:45:06.582Z,12.46
2016-09-24T06:46:06.567Z,12.54
2016-09-24T06:47:06.554Z,12.45
2016-09-24T06:48:06.545Z,12.45
2016-09-24T06:49:06.580Z,12.54
2016-09-24T06:50:06.524Z,12.59
2016-09-24T06:51:06.818Z,12.56
2016-09-24T06:52:06.496Z,12.66
2016-09-24T06:53:06.806Z,12.6
2016-09-24T06:54:06.521Z,12.7
2016-09-24T06:55:07.106Z,12.77
2016-09-24T06:56:06.445Z,12.74
2016-09-24T06:57:06.432Z,12.79
2016-09-24T06:58:06.423Z,12.87
2016-09-24T06:59:06.408Z,12.88
2016-09-24T07:00:06.406Z,12.96
2016-09-24T07:01:06.390Z,12.99
2016-09-24T07:02:06.372Z,13.11
2016-09-24T07:03:06.366Z,13.03
2016-09-24T07:04:06.355Z,13.12
2016-09-24T07:05:06.655Z,13.18
2016-09-24T07:06:06.326Z,13.25
2016-09-24T07:07:06.323Z,13.22
2016-09-24T07:08:06.621Z,13.32
2016-09-24T07:09:06.294Z,13.33
2016-09-24T07:10:06.287Z,13.4
2016-09-24T07:11:06.295Z,13.41
2016-09-24T07:12:06.264Z,13.46
2016-09-24T07:13:06.571Z,13.43
2016-09-24T07:14:06.551Z,13.54
2016-09-24T07:15:06.224Z,13.55
2016-09-24T07:16:06.211Z,13.55
2016-09-24T07:17:06.219Z,13.54
2016-09-24T07:18:06.190Z,13.61
2016-09-24T07:19:06.181Z,13.74
2016-09-24T07:20:06.476Z,13.65
2016-09-24T07:21:06.153Z,13.83
2016-09-24T07:22:06.149Z,13.79
2016-09-24T07:23:06.141Z,13.8
2016-09-24T07:24:06.437Z,13.84
2016-09-24T07:25:06.423Z,13.91
2016-09-24T07:26:06.113Z,13.94
2016-09-24T07:27:06.091Z,14.06
2016-09-24T07:28:06.076Z,14.06
2016-09-24T07:29:06.382Z,14.16
2016-09-24T07:30:06.072Z,14.16
2016-09-24T07:31:06.045Z,14.29
2016-09-24T07:32:06.031Z,14.27
2016-09-24T07:33:06.022Z,14.34
2016-09-24T07:34:06.014Z,14.47
2016-09-24T07:35:06.040Z,14.44
2016-09-24T07:36:05.991Z,14.43
2016-09-24T07:37:05.986Z,14.52
2016-09-24T07:38:05.969Z,14.49
2016-09-24T07:39:06.275Z,14.5
2016-09-24T07:40:05.946Z,14.68
2016-09-24T07:41:05.940Z,14.67
2016-09-24T07:42:05.932Z,14.72
2016-09-24T07:43:06.229Z,14.8
2016-09-24T07:44:05.903Z,14.8
2016-09-24T07:45:05.892Z,14.86
2016-09-24T07:46:05.884Z,14.98
2016-09-24T07:47:06.193Z,14.95
2016-09-24T07:48:05.858Z,15.05
2016-09-24T07:49:05.843Z,15.05
2016-09-24T07:50:05.837Z,15.17
2016-09-24T07:51:06.143Z,15.2
2016-09-24T07:52:05.817Z,15.23
2016-09-24T07:53:05.807Z,15.38
2016-09-24T07:54:06.107Z,15.51
2016-09-24T07:55:05.788Z,15.49
2016-09-24T07:56:05.774Z,15.6
2016-09-24T07:57:05.763Z,15.61
2016-09-24T07:58:05.753Z,15.6
2016-09-24T07:59:06.049Z,15.72
2016-09-24T08:00:05.740Z,15.74
2016-09-24T08:01:05.727Z,15.85
2016-09-24T08:02:06.030Z,15.82
2016-09-24T08:03:06.015Z,15.82
2016-09-24T08:04:05.693Z,15.88
2016-09-24T08:05:05.680Z,15.88
2016-09-24T08:06:05.671Z,15.99
2016-09-24T08:07:05.659Z,16
2016-09-24T08:08:05.964Z,16.14
2016-09-24T08:09:05.641Z,16.15
2016-09-24T08:10:05.629Z,16.31
2016-09-24T08:11:05.935Z,16.34
2016-09-24T08:12:05.611Z,16.41
2016-09-24T08:13:05.604Z,16.35
2016-09-24T08:14:05.589Z,16.5
2016-09-24T08:15:05.583Z,16.53
2016-09-24T08:16:05.584Z,16.62
2016-09-24T08:17:05.876Z,16.63
2016-09-24T08:18:05.566Z,16.81
2016-09-24T08:19:05.542Z,16.92
2016-09-24T08:20:05.863Z,17.1
2016-09-24T08:21:05.541Z,17.15
2016-09-24T08:22:05.518Z,17.28
2016-09-24T08:23:05.858Z,17.33
2016-09-24T08:24:05.824Z,17.32
2016-09-24T08:25:05.517Z,17.28
2016-09-24T08:26:05.500Z,17.28
2016-09-24T08:27:05.467Z,17.4
2016-09-24T08:28:05.777Z,17.48
2016-09-24T08:29:05.451Z,17.46
2016-09-24T08:30:05.491Z,17.4
2016-09-24T08:31:05.437Z,17.57
2016-09-24T08:32:05.426Z,17.53
2016-09-24T08:33:05.730Z,17.64
2016-09-24T08:34:05.413Z,17.7
2016-09-24T08:35:05.393Z,17.71
2016-09-24T08:36:05.700Z,17.71
2016-09-24T08:37:05.390Z,17.78
2016-09-24T08:38:05.418Z,17.82
2016-09-24T08:39:05.364Z,17.85
2016-09-24T08:40:05.351Z,17.84
2016-09-24T08:41:05.357Z,17.94
2016-09-24T08:42:05.535Z,17.91
2016-09-24T08:43:05.659Z,18.03
2016-09-24T08:44:05.320Z,17.95
2016-09-24T08:45:05.320Z,18.12
2016-09-24T08:46:05.303Z,18.09
2016-09-24T08:47:05.288Z,18.1
2016-09-24T08:48:05.285Z,18.15
2016-09-24T08:49:05.591Z,18.15
2016-09-24T08:50:05.608Z,18.24
2016-09-24T08:51:05.258Z,18.27
2016-09-24T08:52:05.256Z,18.37
2016-09-24T08:53:05.260Z,18.4
2016-09-24T08:54:05.229Z,18.46
2016-09-24T08:55:05.232Z,18.57
2016-09-24T08:56:05.212Z,18.62
2016-09-24T08:57:05.206Z,18.67
2016-09-24T08:58:05.199Z,18.67
2016-09-24T08:59:05.184Z,18.79
2016-09-24T09:00:05.179Z,18.79
2016-09-24T09:01:05.486Z,18.84
2016-09-24T09:02:05.165Z,18.9
2016-09-24T09:03:05.466Z,18.98
2016-09-24T09:04:05.146Z,18.97
2016-09-24T09:05:05.467Z,18.97
2016-09-24T09:06:05.139Z,19.08
2016-09-24T09:07:05.147Z,19.11
2016-09-24T09:08:05.112Z,19.21
2016-09-24T09:09:05.416Z,19.15
2016-09-24T09:10:05.098Z,19.18
2016-09-24T09:11:05.091Z,19.28
2016-09-24T09:12:05.083Z,19.32
2016-09-24T09:13:05.076Z,19.32
2016-09-24T09:14:05.064Z,19.4
2016-09-24T09:15:05.056Z,19.39
2016-09-24T09:16:05.369Z,19.5
2016-09-24T09:17:05.040Z,19.5
2016-09-24T09:18:05.032Z,19.5
2016-09-24T09:19:05.338Z,19.55
2016-09-24T09:20:05.024Z,19.57
2016-09-24T09:21:05.018Z,19.65
2016-09-24T09:22:05.007Z,19.61
2016-09-24T09:23:04.993Z,19.55
2016-09-24T09:24:04.981Z,19.76
2016-09-24T09:25:05.006Z,19.83
2016-09-24T09:26:04.967Z,19.98
2016-09-24T09:27:04.963Z,20
2016-09-24T09:28:05.583Z,20.05
2016-09-24T09:29:04.948Z,20.08
2016-09-24T09:30:04.941Z,20.05
2016-09-24T09:31:04.929Z,20.13
2016-09-24T09:32:04.926Z,20.18
2016-09-24T09:33:04.919Z,20.24
2016-09-24T09:34:04.911Z,20.24
2016-09-24T09:35:04.903Z,20.28
2016-09-24T09:36:05.204Z,20.27
2016-09-24T09:37:04.886Z,20.35
2016-09-24T09:38:04.878Z,20.43
2016-09-24T09:39:04.871Z,20.38
2016-09-24T09:40:04.866Z,20.49
2016-09-24T09:41:04.856Z,20.5
2016-09-24T09:42:04.864Z,20.56
2016-09-24T09:43:04.847Z,20.58
2016-09-24T09:44:04.833Z,20.64
2016-09-24T09:45:04.832Z,20.66
2016-09-24T09:46:05.132Z,20.66
2016-09-24T09:47:04.814Z,20.74
2016-09-24T09:48:05.121Z,20.68
2016-09-24T09:49:04.795Z,20.68
2016-09-24T09:50:04.803Z,20.77
2016-09-24T09:51:04.785Z,20.81
2016-09-24T09:52:04.776Z,20.86
2016-09-24T09:53:04.769Z,20.95
2016-09-24T09:54:04.758Z,20.96
2016-09-24T09:55:05.074Z,20.93
2016-09-24T09:56:04.756Z,21.08
2016-09-24T09:57:04.742Z,21.02
2016-09-24T09:58:04.733Z,21.11
2016-09-24T09:59:04.727Z,21.08
2016-09-24T10:00:04.720Z,21.08
2016-09-24T10:01:04.763Z,21.09
2016-09-24T10:02:04.705Z,21.21
2016-09-24T10:03:04.696Z,21.26
2016-09-24T10:04:04.690Z,21.27
2016-09-24T10:05:04.685Z,21.26
2016-09-24T10:06:04.679Z,21.3
2016-09-24T10:07:04.671Z,21.34
2016-09-24T10:08:04.661Z,21.45
2016-09-24T10:09:04.658Z,21.38
2016-09-24T10:10:04.653Z,21.51
2016-09-24T10:11:04.963Z,21.48
2016-09-24T10:12:04.641Z,21.56
2016-09-24T10:13:04.628Z,21.66
2016-09-24T10:14:04.630Z,21.64
2016-09-24T10:15:04.619Z,21.59
2016-09-24T10:16:04.667Z,21.59
2016-09-24T10:17:04.603Z,21.66
2016-09-24T10:18:04.911Z,21.69
2016-09-24T10:19:04.594Z,21.71
2016-09-24T10:20:04.587Z,21.78
2016-09-24T10:21:04.893Z,21.74
2016-09-24T10:22:04.576Z,21.83
2016-09-24T10:23:04.876Z,21.83
2016-09-24T10:24:04.567Z,21.82
2016-09-24T10:25:04.555Z,21.94
2016-09-24T10:26:04.612Z,22.01
2016-09-24T10:27:04.547Z,22.09
2016-09-24T10:28:04.852Z,22.02
2016-09-24T10:29:04.529Z,22.19
2016-09-24T10:30:04.535Z,22.32
2016-09-24T10:31:04.829Z,22.34
2016-09-24T10:32:04.535Z,22.43
2016-09-24T10:33:04.501Z,22.44
2016-09-24T10:34:04.834Z,22.37
2016-09-24T10:35:04.490Z,22.39
2016-09-24T10:36:04.796Z,22.46
2016-09-24T10:37:04.478Z,22.56
2016-09-24T10:38:04.474Z,22.6
2016-09-24T10:39:04.777Z,22.64
2016-09-24T10:40:04.456Z,22.64
2016-09-24T10:41:04.453Z,22.69
2016-09-24T10:42:04.445Z,22.77
2016-09-24T10:43:04.443Z,22.74
2016-09-24T10:44:04.437Z,22.74
2016-09-24T10:45:04.432Z,22.71
2016-09-24T10:46:04.423Z,22.71
2016-09-24T10:47:04.421Z,22.87
2016-09-24T10:48:04.413Z,22.82
2016-09-24T10:49:04.410Z,23.09
2016-09-24T10:50:04.721Z,23.15
2016-09-24T10:51:04.395Z,23.23
2016-09-24T10:52:04.390Z,23.34
2016-09-24T10:53:04.383Z,23.4
2016-09-24T10:54:04.900Z,23.38
2016-09-24T10:55:04.688Z,23.39
2016-09-24T10:56:04.419Z,23.4
2016-09-24T10:57:04.994Z,23.4
2016-09-24T10:58:04.359Z,23.35
2016-09-24T10:59:04.354Z,23.47
2016-09-24T11:00:04.664Z,23.45
2016-09-24T11:01:04.340Z,23.43
2016-09-24T11:02:04.355Z,23.49
2016-09-24T11:03:04.335Z,23.47
2016-09-24T11:04:04.333Z,23.62
2016-09-24T11:05:04.323Z,23.67
2016-09-24T11:06:04.328Z,23.82
2016-09-24T11:07:04.628Z,23.79
2016-09-24T11:08:04.310Z,23.83
2016-09-24T11:09:04.665Z,23.97
2016-09-24T11:10:04.301Z,24.01
2016-09-24T11:11:04.300Z,23.79
2016-09-24T11:12:04.609Z,23.62
2016-09-24T11:13:04.605Z,23.49
2016-09-24T11:14:04.280Z,23.29
2016-09-24T11:15:04.278Z,23.24
2016-09-24T11:16:04.269Z,23.26
2016-09-24T11:17:05.237Z,23.34
2016-09-24T11:18:04.277Z,23.49
2016-09-24T11:19:04.268Z,23.62
2016-09-24T11:20:04.253Z,23.72
2016-09-24T11:21:04.249Z,23.95
2016-09-24T11:22:04.248Z,24.05
2016-09-24T11:23:04.552Z,24.16
2016-09-24T11:24:04.234Z,24.32
2016-09-24T11:25:04.229Z,24.38
2016-09-24T11:26:04.534Z,24.5
2016-09-24T11:27:04.222Z,24.41
2016-09-24T11:28:04.226Z,24.52
2016-09-24T11:29:04.213Z,24.49
2016-09-24T11:30:04.207Z,24.54
2016-09-24T11:31:04.201Z,24.5
2016-09-24T11:32:04.205Z,24.41
2016-09-24T11:33:04.197Z,24.47
2016-09-24T11:34:04.206Z,24.41
2016-09-24T11:35:04.187Z,24.57
2016-09-24T11:36:04.183Z,24.77
2016-09-24T11:37:04.179Z,24.82
2016-09-24T11:38:04.232Z,24.82
2016-09-24T11:39:04.176Z,24.95
2016-09-24T11:40:04.168Z,24.69
2016-09-24T11:41:04.162Z,24.53
2016-09-24T11:42:04.494Z,24.49
2016-09-24T11:43:04.248Z,24.39
2016-09-24T11:44:04.472Z,24.52
2016-09-24T11:45:04.465Z,24.61
2016-09-24T11:46:04.468Z,24.85
2016-09-24T11:47:04.145Z,25.07
2016-09-24T11:48:04.136Z,25.2
2016-09-24T11:49:04.818Z,25.07
2016-09-24T11:50:04.135Z,24.97
2016-09-24T11:51:04.187Z,24.91
2016-09-24T11:52:04.123Z,24.75
2016-09-24T11:53:04.195Z,24.67
2016-09-24T11:54:04.212Z,24.5
2016-09-24T11:55:04.113Z,24.45
2016-09-24T11:56:04.109Z,24.35
2016-09-24T11:57:04.108Z,24.35
2016-09-24T11:58:04.415Z,24.77
2016-09-24T11:59:04.098Z,25.17
2016-09-24T12:00:04.414Z,25.59
2016-09-24T12:01:04.088Z,26.08
2016-09-24T12:02:04.400Z,26.65
2016-09-24T12:03:04.081Z,26.68
2016-09-24T12:04:04.090Z,26.46
2016-09-24T12:05:04.391Z,26.37
2016-09-24T12:06:04.095Z,26.52
2016-09-24T12:07:04.074Z,26.96
2016-09-24T12:08:04.388Z,27.23
2016-09-24T12:09:04.077Z,27.2
2016-09-24T12:10:04.072Z,27.17
2016-09-24T12:11:04.415Z,26.92
2016-09-24T12:12:04.070Z,26.79
2016-09-24T12:13:04.379Z,26.52
2016-09-24T12:14:04.084Z,26.46
2016-09-24T12:15:04.058Z,26.43
2016-09-24T12:16:04.412Z,26.77
2016-09-24T12:17:04.056Z,27.16
2016-09-24T12:18:04.059Z,27.54
2016-09-24T12:19:04.057Z,27.86
2016-09-24T12:20:04.369Z,28.25
2016-09-24T12:21:04.065Z,28.26
2016-09-24T12:22:04.051Z,28.35
2016-09-24T12:23:04.057Z,28.51
2016-09-24T12:24:04.052Z,28.73
2016-09-24T12:25:04.675Z,29.15
2016-09-24T12:26:04.046Z,29.33
2016-09-24T12:27:04.046Z,29.2
2016-09-24T12:28:04.046Z,29.26
2016-09-24T12:29:04.045Z,29.35
2016-09-24T12:30:04.042Z,29.33
2016-09-24T12:31:04.063Z,29.4
2016-09-24T12:32:04.050Z,29.71
2016-09-24T12:33:04.048Z,29.96
2016-09-24T12:34:04.673Z,29.99
2016-09-24T12:35:04.069Z,30.3
2016-09-24T12:36:04.053Z,30.29
2016-09-24T12:37:04.052Z,30.19
2016-09-24T12:38:04.052Z,30.27
2016-09-24T12:39:04.403Z,30.64
2016-09-24T12:40:04.059Z,30.74
2016-09-24T12:41:04.065Z,30.74
2016-09-24T12:42:04.276Z,30.98
2016-09-24T12:43:04.072Z,31.12
2016-09-24T12:44:04.062Z,30.71
2016-09-24T12:45:04.075Z,30.76
2016-09-24T12:46:04.066Z,30.75
2016-09-24T12:47:04.070Z,30.29
2016-09-24T12:48:04.064Z,30.23
2016-09-24T12:49:04.071Z,30.21
2016-09-24T12:50:04.077Z,30.09
2016-09-24T12:51:04.398Z,29.96
2016-09-24T12:52:04.079Z,30.09
2016-09-24T12:53:04.079Z,30.24
2016-09-24T12:54:04.080Z,30.3
2016-09-24T12:55:04.081Z,30.31